Time;durP1;ratioP1;P1;durP2;ratioP2;P2;SDS_P1;SDS_P2;PMS_P1;PMS_P2;Temp;Humidity;BMP_temperature;BMP_pressure;BME280_temperature;BME280_humidity;BME280_pressure;Samples;Min_cycle;Max_cycle;Signal;HPM_P1;HPM_P2
2022/02/25 00:00:39;;;;;;;12.40;9.93;;;4.60;99.90;;;;;;5097489;28;20176;-87
2022/02/25 00:03:05;;;;;;;15.02;10.73;;;4.60;99.90;;;;;;5096908;28;20315;-93
2022/02/25 00:05:33;;;;;;;21.67;13.77;;;4.70;99.90;;;;;;5097292;28;20172;-87
2022/02/25 00:07:59;;;;;;;21.27;14.60;;;4.70;99.90;;;;;;5096822;28;20215;-93
2022/02/25 00:10:25;;;;;;;17.35;11.38;;;4.70;99.90;;;;;;5098100;28;20191;-91
2022/02/25 00:12:51;;;;;;;19.57;13.73;;;4.70;99.90;;;;;;5096906;28;20204;-88
2022/02/25 00:15:17;;;;;;;12.87;8.57;;;4.70;99.90;;;;;;5103150;28;20395;-93
2022/02/25 00:17:43;;;;;;;12.82;8.82;;;4.70;99.90;;;;;;5100949;28;20412;-93
2022/02/25 00:20:10;;;;;;;10.73;7.43;;;4.70;99.90;;;;;;5078560;28;20181;-91
2022/02/25 00:22:36;;;;;;;13.73;8.05;;;4.70;99.90;;;;;;5078308;28;20699;-92
2022/02/25 00:25:02;;;;;;;11.85;7.63;;;4.60;99.90;;;;;;5078811;28;20172;-88
2022/02/25 00:27:28;;;;;;;16.85;8.60;;;4.60;99.90;;;;;;5099512;28;20677;-91
2022/02/25 00:29:54;;;;;;;12.67;8.00;;;4.50;99.90;;;;;;5096126;28;20211;-88
2022/02/25 00:32:20;;;;;;;13.23;7.70;;;4.40;99.90;;;;;;5078556;28;20235;-94
2022/02/25 00:34:46;;;;;;;15.20;8.18;;;4.40;99.90;;;;;;5097437;28;20633;-88
2022/02/25 00:37:12;;;;;;;11.40;8.40;;;4.30;99.90;;;;;;5097839;28;20200;-93
2022/02/25 00:39:38;;;;;;;8.33;7.10;;;4.30;99.90;;;;;;5079471;28;20180;-86
2022/02/25 00:42:06;;;;;;;11.80;7.53;;;4.30;99.90;;;;;;5078400;28;20281;-92
2022/02/25 00:44:32;;;;;;;11.05;8.05;;;4.30;99.90;;;;;;5098805;28;20379;-87
2022/02/25 00:46:58;;;;;;;14.27;7.40;;;4.30;99.90;;;;;;5079577;28;20763;-87
2022/02/25 00:49:23;;;;;;;10.83;7.33;;;4.20;99.90;;;;;;5090620;28;20185;-88
2022/02/25 00:51:49;;;;;;;10.67;7.80;;;4.20;99.90;;;;;;5077040;28;20417;-93
2022/02/25 00:54:15;;;;;;;9.27;6.47;;;4.20;99.90;;;;;;5077984;28;20223;-89
2022/02/25 00:56:40;;;;;;;11.80;7.20;;;4.10;99.90;;;;;;5095980;28;20165;-92
2022/02/25 00:59:06;;;;;;;10.43;6.97;;;4.10;99.90;;;;;;5078387;28;20176;-94
2022/02/25 01:01:32;;;;;;;15.50;7.80;;;4.10;99.90;;;;;;5096449;28;20204;-91
2022/02/25 01:03:58;;;;;;;14.70;6.77;;;4.10;99.90;;;;;;5099074;28;20218;-92
2022/02/25 01:06:23;;;;;;;13.80;8.10;;;4.00;99.90;;;;;;5077297;28;20180;-88
2022/02/25 01:08:49;;;;;;;13.30;8.00;;;4.00;99.90;;;;;;5095448;28;20208;-88
2022/02/25 01:11:14;;;;;;;13.10;8.00;;;3.90;99.90;;;;;;5097556;28;20173;-88
2022/02/25 01:13:40;;;;;;;12.50;7.70;;;3.90;99.90;;;;;;5102414;28;20219;-88
2022/02/25 01:16:06;;;;;;;10.10;7.23;;;3.90;99.90;;;;;;5077209;28;20203;-93
2022/02/25 01:18:32;;;;;;;11.13;8.50;;;3.90;99.90;;;;;;5077452;28;20212;-88
2022/02/25 01:20:57;;;;;;;14.80;9.03;;;3.80;99.90;;;;;;5077918;28;20200;-89
2022/02/25 01:23:23;;;;;;;12.10;8.37;;;3.80;99.90;;;;;;5077666;28;20625;-90
2022/02/25 01:25:49;;;;;;;10.43;8.10;;;3.80;99.90;;;;;;5077869;28;20168;-92
2022/02/25 01:28:14;;;;;;;13.43;8.17;;;3.80;99.90;;;;;;5077438;28;20200;-88
2022/02/25 01:30:40;;;;;;;12.90;9.37;;;3.80;99.90;;;;;;5077758;28;20191;-88
2022/02/25 01:33:06;;;;;;;13.23;8.97;;;3.80;99.90;;;;;;5078478;28;20204;-90
2022/02/25 01:35:33;;;;;;;14.83;10.20;;;3.80;99.90;;;;;;5077953;28;20177;-92
2022/02/25 01:37:58;;;;;;;12.43;7.50;;;3.80;99.90;;;;;;5083608;28;20500;-91
2022/02/25 01:40:24;;;;;;;15.10;8.73;;;3.80;99.90;;;;;;5103770;28;20169;-90
2022/02/25 01:42:52;;;;;;;14.53;8.60;;;3.80;99.90;;;;;;5077566;28;20224;-93
2022/02/25 01:45:19;;;;;;;14.35;8.60;;;3.70;99.90;;;;;;5077988;28;20589;-88
2022/02/25 01:47:45;;;;;;;12.13;8.30;;;3.70;99.90;;;;;;5097459;28;20649;-88
2022/02/25 01:50:11;;;;;;;11.90;8.95;;;3.70;99.90;;;;;;5076847;28;20176;-92
2022/02/25 01:52:39;;;;;;;18.08;10.65;;;3.60;99.90;;;;;;5076640;28;20208;-92
2022/02/25 01:55:06;;;;;;;14.23;9.20;;;3.60;99.90;;;;;;5077993;28;20550;-93
2022/02/25 01:57:32;;;;;;;11.98;8.70;;;3.60;99.90;;;;;;5096014;28;20196;-88
2022/02/25 01:59:57;;;;;;;13.83;8.80;;;3.60;99.90;;;;;;5077919;28;20173;-90
2022/02/25 02:02:23;;;;;;;15.70;10.00;;;3.60;99.90;;;;;;5077957;28;20220;-87
2022/02/25 02:04:49;;;;;;;17.37;9.40;;;3.60;99.90;;;;;;5080863;28;20173;-88
2022/02/25 02:07:15;;;;;;;15.37;9.67;;;3.60;99.90;;;;;;5102516;28;20272;-87
2022/02/25 02:09:41;;;;;;;14.93;10.63;;;3.50;99.90;;;;;;5076529;28;20458;-90
2022/02/25 02:12:07;;;;;;;14.70;10.07;;;3.50;99.90;;;;;;5094578;28;20441;-87
2022/02/25 02:14:33;;;;;;;15.00;8.27;;;3.50;99.90;;;;;;5090339;28;20248;-88
2022/02/25 02:16:59;;;;;;;13.20;7.97;;;3.50;99.90;;;;;;5094087;28;20194;-89
2022/02/25 02:19:25;;;;;;;14.67;9.30;;;3.50;99.90;;;;;;5094814;28;20400;-90
2022/02/25 02:21:53;;;;;;;14.70;9.70;;;3.50;99.90;;;;;;5111273;28;20459;-92
2022/02/25 02:24:21;;;;;;;10.65;7.80;;;3.50;99.90;;;;;;5094691;28;20185;-92
2022/02/25 02:26:48;;;;;;;15.68;10.55;;;3.50;99.90;;;;;;5098171;28;20172;-87
2022/02/25 02:29:14;;;;;;;17.13;11.00;;;3.50;99.90;;;;;;5096097;28;20306;-87
2022/02/25 02:31:41;;;;;;;16.55;11.63;;;3.50;99.90;;;;;;5123287;27;20184;-87
2022/02/25 02:34:12;;;;;;;17.35;9.90;;;3.50;99.90;;;;;;5094453;28;20215;-87
2022/02/25 02:36:38;;;;;;;14.73;10.30;;;3.50;99.90;;;;;;5094919;28;20230;-87
2022/02/25 02:39:05;;;;;;;15.50;8.53;;;3.50;99.90;;;;;;5092903;28;20196;-88
2022/02/25 02:41:31;;;;;;;12.35;8.65;;;3.50;99.90;;;;;;5093374;28;20471;-92
2022/02/25 02:43:57;;;;;;;14.60;9.43;;;3.50;99.90;;;;;;5093864;28;20604;-93
2022/02/25 02:46:23;;;;;;;17.30;8.77;;;3.40;99.90;;;;;;5112411;28;20184;-94
2022/02/25 02:48:49;;;;;;;13.60;8.90;;;3.40;99.90;;;;;;5094411;28;20456;-93
2022/02/25 02:51:14;;;;;;;12.23;8.93;;;3.30;99.90;;;;;;5094527;28;20462;-87
2022/02/25 02:53:40;;;;;;;14.50;9.23;;;3.30;99.90;;;;;;5093417;28;20203;-88
2022/02/25 02:56:06;;;;;;;18.33;11.00;;;3.20;99.90;;;;;;5093606;28;20173;-88
2022/02/25 02:58:32;;;;;;;16.47;9.90;;;3.20;99.90;;;;;;5095496;28;20439;-88
2022/02/25 03:00:58;;;;;;;17.47;10.27;;;3.20;99.90;;;;;;5096023;28;20407;-90
2022/02/25 03:03:24;;;;;;;15.70;9.90;;;3.20;99.90;;;;;;5094908;28;20447;-91
2022/02/25 03:05:50;;;;;;;15.30;9.23;;;3.10;99.90;;;;;;5101927;28;20577;-86
2022/02/25 03:08:16;;;;;;;17.80;11.05;;;3.10;99.90;;;;;;5102355;28;20911;-91
2022/02/25 03:10:44;;;;;;;14.70;10.02;;;3.00;99.90;;;;;;5107797;28;20177;-86
2022/02/25 03:13:12;;;;;;;17.17;10.25;;;3.00;99.90;;;;;;5111072;28;20232;-88
2022/02/25 03:15:38;;;;;;;16.10;9.98;;;2.90;99.90;;;;;;5097481;28;20246;-87
2022/02/25 03:18:05;;;;;;;15.98;10.00;;;2.90;99.90;;;;;;5098397;28;20241;-92
2022/02/25 03:20:31;;;;;;;14.07;9.70;;;2.90;99.90;;;;;;5079971;28;20177;-86
2022/02/25 03:22:57;;;;;;;16.42;11.32;;;2.90;99.90;;;;;;5082644;28;20224;-91
2022/02/25 03:25:23;;;;;;;19.93;11.07;;;2.80;99.90;;;;;;5079653;28;20281;-86
2022/02/25 03:27:49;;;;;;;18.50;10.40;;;2.80;99.90;;;;;;5097555;28;20192;-91
2022/02/25 03:30:15;;;;;;;17.40;10.90;;;2.80;99.90;;;;;;5080018;28;20593;-90
2022/02/25 03:32:45;;;;;;;15.02;9.70;;;2.70;99.90;;;;;;5098490;28;20416;-91
2022/02/25 03:35:12;;;;;;;16.08;9.95;;;2.70;99.90;;;;;;5080388;28;20199;-86
2022/02/25 03:37:38;;;;;;;16.13;10.57;;;2.70;99.90;;;;;;5080666;28;20200;-91
2022/02/25 03:40:06;;;;;;;15.10;9.38;;;2.60;99.90;;;;;;5098575;28;20202;-87
2022/02/25 03:42:32;;;;;;;15.82;9.07;;;2.60;99.90;;;;;;5101977;28;20220;-90
2022/02/25 03:44:58;;;;;;;14.13;9.60;;;2.60;99.90;;;;;;5096729;28;20663;-87
2022/02/25 03:47:24;;;;;;;19.47;11.20;;;2.60;99.90;;;;;;5097144;28;20501;-87
2022/02/25 03:49:49;;;;;;;17.93;10.27;;;2.60;99.90;;;;;;5079116;28;20386;-87
2022/02/25 03:52:15;;;;;;;19.23;11.30;;;2.60;99.90;;;;;;5096842;28;20196;-91
2022/02/25 03:54:41;;;;;;;19.13;11.73;;;2.60;99.90;;;;;;5079525;28;20172;-91
2022/02/25 03:57:07;;;;;;;15.97;9.43;;;2.60;99.90;;;;;;5079919;28;20433;-91
2022/02/25 03:59:32;;;;;;;18.20;10.57;;;2.60;99.90;;;;;;5079910;28;20184;-87
2022/02/25 04:01:58;;;;;;;21.90;11.20;;;2.60;99.90;;;;;;5097548;28;20193;-87
2022/02/25 04:04:26;;;;;;;19.13;10.97;;;2.50;99.90;;;;;;5098533;28;20210;-86
2022/02/25 04:06:52;;;;;;;18.98;12.38;;;2.50;99.90;;;;;;5101308;28;20183;-91
2022/02/25 04:09:18;;;;;;;17.50;12.30;;;2.50;99.90;;;;;;5083698;28;20303;-86
2022/02/25 04:11:48;;;;;;;25.90;18.65;;;2.40;99.90;;;;;;5078608;28;20420;-87
2022/02/25 04:14:14;;;;;;;24.42;18.23;;;2.40;99.90;;;;;;5096467;28;20224;-92
2022/02/25 04:16:41;;;;;;;23.83;17.17;;;2.40;99.90;;;;;;5077433;28;20183;-87
2022/02/25 04:19:07;;;;;;;18.65;12.77;;;2.40;99.90;;;;;;5078139;28;20184;-88
2022/02/25 04:21:33;;;;;;;19.88;13.38;;;2.30;99.90;;;;;;5078594;28;20212;-87
2022/02/25 04:23:59;;;;;;;21.90;11.40;;;2.30;99.90;;;;;;5079456;28;20218;-91
2022/02/25 04:26:25;;;;;;;20.10;11.57;;;2.30;99.90;;;;;;5097548;28;20571;-87
2022/02/25 04:28:50;;;;;;;17.03;11.97;;;2.30;99.90;;;;;;5081552;28;20455;-93
2022/02/25 04:31:17;;;;;;;22.73;12.37;;;2.20;99.90;;;;;;5079282;28;20176;-92
2022/02/25 04:33:42;;;;;;;16.02;11.43;;;2.20;99.90;;;;;;5098227;28;20869;-88
2022/02/25 04:36:08;;;;;;;15.90;10.90;;;2.20;99.90;;;;;;5081076;28;20179;-86
2022/02/25 04:38:34;;;;;;;19.67;12.00;;;2.10;99.90;;;;;;5079025;28;20205;-91
2022/02/25 04:41:01;;;;;;;19.73;11.80;;;2.10;99.90;;;;;;5078956;28;20211;-88
2022/02/25 04:43:33;;;;;;;18.42;11.38;;;2.10;99.90;;;;;;5095971;28;20784;-88
2022/02/25 04:45:59;;;;;;;25.33;13.43;;;2.10;99.90;;;;;;5078835;28;20172;-92
2022/02/25 04:48:26;;;;;;;15.57;12.00;;;2.10;99.90;;;;;;5078786;28;20212;-93
2022/02/25 04:50:52;;;;;;;18.20;11.70;;;2.10;99.90;;;;;;5102823;28;20777;-92
2022/02/25 04:53:18;;;;;;;20.58;12.02;;;2.10;99.90;;;;;;5078043;28;20200;-93
2022/02/25 04:55:46;;;;;;;18.37;11.30;;;2.10;99.90;;;;;;5077339;28;20273;-92
2022/02/25 04:58:13;;;;;;;17.95;12.05;;;2.10;99.90;;;;;;5078499;28;20457;-91
2022/02/25 05:00:40;;;;;;;20.38;12.75;;;2.10;99.90;;;;;;5079107;28;20222;-91
2022/02/25 05:03:05;;;;;;;23.33;12.45;;;2.10;99.90;;;;;;5086994;28;20252;-91
2022/02/25 05:05:31;;;;;;;20.97;11.40;;;2.10;99.90;;;;;;5109261;28;20182;-89
2022/02/25 05:07:59;;;;;;;16.50;12.57;;;2.10;99.90;;;;;;5078470;28;20204;-92
2022/02/25 05:10:26;;;;;;;20.08;12.25;;;2.10;99.90;;;;;;5101001;28;20387;-88
2022/02/25 05:12:55;;;;;;;19.23;11.77;;;2.10;99.90;;;;;;5077471;28;20267;-88
2022/02/25 05:20:50;;;;;;;19.05;13.73;;;2.00;99.90;;;;;;5096414;28;20172;-88
2022/02/25 05:23:16;;;;;;;19.70;12.55;;;2.00;99.90;;;;;;5112177;28;20224;-93
2022/02/25 05:25:43;;;;;;;29.27;15.68;;;2.00;99.90;;;;;;5111063;28;20187;-93
2022/02/25 05:28:09;;;;;;;38.65;20.60;;;2.00;99.90;;;;;;5099073;28;20204;-88
2022/02/25 05:30:35;;;;;;;61.40;30.92;;;2.00;99.90;;;;;;5077100;28;20645;-91
2022/02/25 05:33:01;;;;;;;31.60;19.17;;;2.00;99.90;;;;;;5095756;28;20301;-92
2022/02/25 05:35:27;;;;;;;35.50;19.50;;;2.00;99.90;;;;;;5080450;28;20172;-91
2022/02/25 05:37:54;;;;;;;36.40;20.90;;;1.90;99.90;;;;;;5078662;28;20200;-90
2022/02/25 05:40:23;;;;;;;39.38;20.77;;;1.90;99.90;;;;;;5077070;28;20183;-86
2022/02/25 05:42:49;;;;;;;36.05;19.23;;;1.90;99.90;;;;;;5076369;28;20224;-88
2022/02/25 05:45:16;;;;;;;34.90;22.00;;;1.80;99.90;;;;;;5076561;28;20177;-89
2022/02/25 05:47:43;;;;;;;45.05;22.67;;;1.90;99.90;;;;;;5076277;28;20724;-91
2022/02/25 05:50:12;;;;;;;44.88;24.98;;;1.90;99.90;;;;;;5079115;28;20172;-92
2022/02/25 05:52:39;;;;;;;39.40;23.30;;;1.90;99.90;;;;;;5077145;28;20283;-92
2022/02/25 05:55:05;;;;;;;34.90;20.35;;;2.00;99.90;;;;;;5076660;28;20205;-91
2022/02/25 05:57:31;;;;;;;31.85;18.63;;;2.00;99.90;;;;;;5094687;28;20212;-93
2022/02/25 05:59:57;;;;;;;36.20;18.27;;;2.10;99.90;;;;;;5074123;28;20383;-87
2022/02/25 06:02:23;;;;;;;34.37;21.23;;;2.10;99.90;;;;;;5076229;28;20451;-91
2022/02/25 06:04:49;;;;;;;27.40;17.40;;;2.10;99.90;;;;;;5085341;28;20184;-91
2022/02/25 06:07:16;;;;;;;26.20;17.02;;;2.10;99.90;;;;;;5100004;28;20633;-91
2022/02/25 06:09:41;;;;;;;23.58;16.50;;;2.20;99.90;;;;;;5084355;28;20176;-92
2022/02/25 06:12:07;;;;;;;26.20;16.00;;;2.20;99.90;;;;;;5093207;28;20188;-92
2022/02/25 06:14:33;;;;;;;23.92;15.55;;;2.20;99.90;;;;;;5084528;28;20231;-87
2022/02/25 06:16:59;;;;;;;20.10;13.70;;;2.30;99.90;;;;;;5088823;28;20661;-91
2022/02/25 06:19:24;;;;;;;21.80;14.70;;;2.30;99.90;;;;;;5078743;28;20208;-87
2022/02/25 06:21:50;;;;;;;21.73;14.30;;;2.30;99.90;;;;;;5097393;28;20250;-87
2022/02/25 06:24:16;;;;;;;21.97;14.23;;;2.40;99.90;;;;;;5067286;28;20253;-88
2022/02/25 06:26:43;;;;;;;20.67;13.65;;;2.40;99.90;;;;;;5077797;28;20204;-93
2022/02/25 06:29:09;;;;;;;20.30;13.60;;;2.50;99.90;;;;;;5079853;28;20233;-87
2022/02/25 06:31:35;;;;;;;21.95;14.25;;;2.50;99.90;;;;;;5076407;28;20356;-91
2022/02/25 06:34:00;;;;;;;23.83;13.33;;;2.60;99.90;;;;;;5096039;28;20200;-91
2022/02/25 06:36:26;;;;;;;23.60;14.70;;;2.60;99.90;;;;;;5108778;28;20544;-90
2022/02/25 06:38:52;;;;;;;21.00;13.07;;;2.70;99.90;;;;;;5084493;28;20200;-93
2022/02/25 06:41:18;;;;;;;19.20;13.63;;;2.70;99.90;;;;;;5097039;28;20398;-87
2022/02/25 06:43:44;;;;;;;17.45;13.38;;;2.80;99.90;;;;;;5078853;28;20200;-91
2022/02/25 06:46:11;;;;;;;17.85;13.48;;;2.80;99.90;;;;;;5081970;28;20176;-92
2022/02/25 06:48:41;;;;;;;32.75;18.77;;;2.90;99.90;;;;;;5079184;28;20228;-93
2022/02/25 06:51:07;;;;;;;31.17;20.98;;;3.00;99.90;;;;;;5076083;28;20198;-93
2022/02/25 06:53:33;;;;;;;36.40;18.60;;;3.00;99.90;;;;;;5099452;28;20200;-93
2022/02/25 06:55:59;;;;;;;23.38;14.38;;;3.10;99.90;;;;;;5099835;28;20202;-94
2022/02/25 06:58:25;;;;;;;20.57;14.00;;;3.20;99.90;;;;;;5079162;28;20209;-95
2022/02/25 07:00:51;;;;;;;19.65;11.93;;;3.20;99.90;;;;;;5074000;28;20391;-92
2022/02/25 07:03:17;;;;;;;17.47;11.73;;;3.30;99.90;;;;;;5091132;28;20260;-91
2022/02/25 07:05:43;;;;;;;22.80;13.33;;;3.30;99.90;;;;;;5093857;28;20399;-92
2022/02/25 07:08:09;;;;;;;25.07;14.97;;;3.40;99.90;;;;;;5085255;28;20204;-88
2022/02/25 07:10:36;;;;;;;20.83;13.65;;;3.50;99.90;;;;;;5089664;28;20231;-90
2022/02/25 07:13:05;;;;;;;17.75;13.18;;;3.60;99.90;;;;;;5098567;28;20247;-92
2022/02/25 07:15:31;;;;;;;21.00;13.35;;;3.70;99.90;;;;;;5079234;28;20172;-94
2022/02/25 07:17:58;;;;;;;19.55;13.38;;;3.80;99.90;;;;;;5093291;28;20200;-94
2022/02/25 07:20:23;;;;;;;16.30;12.48;;;3.80;99.90;;;;;;5079105;28;20222;-94
2022/02/25 07:22:50;;;;;;;27.70;14.83;;;3.90;99.90;;;;;;5096059;28;20696;-92
2022/02/25 07:25:16;;;;;;;18.90;13.55;;;3.90;99.90;;;;;;5069411;28;20230;-94
2022/02/25 07:27:43;;;;;;;21.02;13.57;;;3.90;99.90;;;;;;5095554;28;20328;-88
2022/02/25 07:30:10;;;;;;;19.25;15.18;;;4.00;99.90;;;;;;5096784;28;20200;-93
2022/02/25 07:32:36;;;;;;;23.10;13.88;;;4.00;99.90;;;;;;5083220;28;20216;-90
2022/02/25 07:35:04;;;;;;;22.58;15.20;;;4.10;99.90;;;;;;5076596;28;20177;-92
2022/02/25 07:37:30;;;;;;;21.92;14.55;;;4.20;99.90;;;;;;5071611;28;20628;-91
2022/02/25 07:39:56;;;;;;;24.00;15.50;;;4.30;99.90;;;;;;5075135;28;20237;-89
2022/02/25 07:42:22;;;;;;;20.50;13.15;;;4.40;99.90;;;;;;5079297;28;20315;-92
2022/02/25 07:44:48;;;;;;;20.55;13.27;;;4.60;99.90;;;;;;5071654;28;20177;-90
2022/02/25 07:47:16;;;;;;;23.07;14.60;;;4.70;99.90;;;;;;5091937;28;20204;-88
2022/02/25 07:49:42;;;;;;;21.10;14.00;;;4.80;99.90;;;;;;5075701;28;20486;-88
2022/02/25 07:52:08;;;;;;;19.75;14.50;;;4.90;99.90;;;;;;5071103;28;20288;-95
2022/02/25 07:54:33;;;;;;;21.43;13.77;;;5.10;99.90;;;;;;5074799;28;20181;-90
2022/02/25 07:57:00;;;;;;;24.73;15.90;;;5.30;99.90;;;;;;5091118;28;20419;-93
2022/02/25 07:59:26;;;;;;;23.05;13.68;;;5.50;99.90;;;;;;5068445;28;20168;-91
2022/02/25 08:01:52;;;;;;;19.70;15.20;;;5.80;99.90;;;;;;5089944;28;20265;-92
2022/02/25 08:04:17;;;;;;;23.93;16.50;;;6.00;99.90;;;;;;5090833;28;20240;-90
2022/02/25 08:06:45;;;;;;;21.90;14.17;;;6.20;99.90;;;;;;5070663;28;20279;-90
2022/02/25 08:09:11;;;;;;;28.98;20.67;;;6.30;99.90;;;;;;5064941;28;20262;-93
2022/02/25 08:11:37;;;;;;;24.48;16.55;;;6.40;99.90;;;;;;5078783;28;20189;-88
2022/02/25 08:14:03;;;;;;;19.77;16.50;;;6.50;99.90;;;;;;5092940;28;20220;-95
2022/02/25 08:16:28;;;;;;;19.13;14.07;;;6.70;99.90;;;;;;5073849;28;20234;-91
2022/02/25 08:18:54;;;;;;;24.97;17.60;;;6.90;99.90;;;;;;5099347;28;20510;-88
2022/02/25 08:21:20;;;;;;;24.90;17.20;;;7.10;99.90;;;;;;5081418;28;20192;-88
2022/02/25 08:23:45;;;;;;;24.53;17.40;;;7.30;99.90;;;;;;5091347;28;20689;-88
2022/02/25 08:26:11;;;;;;;24.60;17.73;;;7.60;99.90;;;;;;5089227;28;20257;-88
2022/02/25 08:28:37;;;;;;;21.05;15.10;;;8.10;99.90;;;;;;5070122;28;20200;-88
2022/02/25 08:31:04;;;;;;;20.90;17.00;;;8.70;99.90;;;;;;5082086;28;20188;-91
2022/02/25 08:33:30;;;;;;;22.25;14.98;;;9.20;99.90;;;;;;5094312;28;20254;-86
2022/02/25 08:35:56;;;;;;;23.50;16.97;;;9.70;99.90;;;;;;5090441;28;20176;-86
2022/02/25 08:38:22;;;;;;;20.27;15.65;;;10.50;99.90;;;;;;5072802;28;20211;-86
2022/02/25 08:40:48;;;;;;;22.67;16.47;;;11.50;99.90;;;;;;5090109;28;20264;-85
2022/02/25 08:43:14;;;;;;;18.10;14.70;;;12.60;99.90;;;;;;5076857;28;20225;-89
2022/02/25 08:45:41;;;;;;;20.35;14.90;;;13.60;97.90;;;;;;5068895;28;20632;-89
2022/02/25 08:48:07;;;;;;;18.38;13.90;;;14.60;95.00;;;;;;5095331;28;20230;-88
2022/02/25 08:50:34;;;;;;;23.17;16.98;;;15.40;93.30;;;;;;5079863;28;20181;-90
2022/02/25 08:53:00;;;;;;;22.43;15.53;;;16.20;91.40;;;;;;5075856;28;20829;-89
2022/02/25 08:55:26;;;;;;;19.90;16.20;;;16.90;87.60;;;;;;5097735;28;20418;-87
2022/02/25 08:57:52;;;;;;;20.10;15.57;;;17.60;84.30;;;;;;5079976;28;20533;-88
2022/02/25 09:00:23;;;;;;;21.57;16.10;;;18.10;81.60;;;;;;5074987;28;20441;-93
2022/02/25 09:02:50;;;;;;;18.30;14.90;;;18.50;79.50;;;;;;5076070;28;20484;-92
2022/02/25 09:05:17;;;;;;;17.73;14.67;;;18.90;78.10;;;;;;5106223;28;20439;-92
2022/02/25 09:07:44;;;;;;;19.27;15.27;;;19.30;75.50;;;;;;5076978;28;20449;-95
2022/02/25 09:10:12;;;;;;;19.60;16.50;;;19.70;74.30;;;;;;5098204;28;20421;-93
2022/02/25 09:12:38;;;;;;;19.50;14.77;;;20.00;73.00;;;;;;5074721;28;20461;-95
2022/02/25 09:15:07;;;;;;;21.13;15.70;;;20.30;72.60;;;;;;5083331;28;20433;-93
2022/02/25 09:17:34;;;;;;;16.57;13.83;;;20.70;71.70;;;;;;5070406;28;20461;-94
2022/02/25 09:20:00;;;;;;;18.40;15.23;;;21.10;71.00;;;;;;5079792;28;20790;-93
2022/02/25 09:22:26;;;;;;;18.90;14.10;;;21.40;69.00;;;;;;5075234;28;20510;-94
2022/02/25 09:24:53;;;;;;;18.70;14.90;;;21.70;68.50;;;;;;5081650;28;20426;-94
2022/02/25 09:27:19;;;;;;;18.67;14.90;;;22.10;67.00;;;;;;5075528;28;20494;-94
2022/02/25 09:29:45;;;;;;;16.97;14.73;;;22.40;66.90;;;;;;5080281;28;20429;-94
2022/02/25 09:32:14;;;;;;;18.60;14.83;;;22.60;64.90;;;;;;5076374;28;20454;-95
2022/02/25 09:34:39;;;;;;;16.50;14.50;;;22.80;64.70;;;;;;5072240;28;20444;-90
2022/02/25 09:37:05;;;;;;;20.27;15.37;;;22.90;64.20;;;;;;5096047;28;20454;-90
2022/02/25 09:39:32;;;;;;;20.07;15.07;;;22.80;63.30;;;;;;5091843;28;20782;-90
2022/02/25 09:41:59;;;;;;;19.30;15.67;;;22.70;63.60;;;;;;5091888;28;20215;-89
2022/02/25 09:44:25;;;;;;;21.60;16.20;;;22.40;63.50;;;;;;5073616;28;20431;-89
2022/02/25 09:46:52;;;;;;;19.40;16.10;;;22.20;63.60;;;;;;5071465;28;20467;-89
2022/02/25 09:49:18;;;;;;;20.70;16.47;;;22.00;63.90;;;;;;5070447;28;20455;-89
2022/02/25 09:51:45;;;;;;;19.13;14.80;;;21.70;63.90;;;;;;5076531;27;20415;-89
2022/02/25 09:54:18;;;;;;;19.80;15.50;;;21.50;64.20;;;;;;5070778;28;20425;-90
2022/02/25 09:56:46;;;;;;;18.07;15.50;;;21.50;64.90;;;;;;5090791;28;20427;-89
2022/02/25 09:59:13;;;;;;;23.57;15.90;;;21.50;64.60;;;;;;5073349;28;20436;-90
2022/02/25 10:01:39;;;;;;;16.30;14.43;;;21.50;64.00;;;;;;5069525;28;20416;-90
2022/02/25 10:04:14;;;;;;;14.93;13.43;;;21.50;64.00;;;;;;5072235;28;20525;-90
2022/02/25 10:06:41;;;;;;;15.73;12.70;;;21.50;63.80;;;;;;5078658;28;20476;-94
2022/02/25 10:09:33;;;;;;;14.77;12.57;;;21.60;63.20;;;;;;5071099;28;20996;-94
2022/02/25 10:12:11;;;;;;;15.37;11.90;;;21.70;63.90;;;;;;5072463;28;20489;-93
2022/02/25 10:14:45;;;;;;;14.63;12.43;;;21.80;62.90;;;;;;5087784;28;20467;-94
2022/02/25 10:17:20;;;;;;;13.83;12.33;;;21.60;62.30;;;;;;5096806;28;20500;-93
2022/02/25 10:20:07;;;;;;;15.70;12.33;;;21.40;62.90;;;;;;5100434;28;20440;-94
2022/02/25 10:22:36;;;;;;;14.90;12.00;;;20.90;63.00;;;;;;5090100;28;20762;-93
2022/02/25 10:25:06;;;;;;;19.17;13.50;;;20.40;63.70;;;;;;5096504;28;20963;-94
2022/02/25 10:27:34;;;;;;;15.60;11.87;;;20.00;65.40;;;;;;5098985;28;20958;-93
2022/02/25 10:30:12;;;;;;;15.03;12.73;;;19.70;65.50;;;;;;5101122;28;20445;-93
2022/02/25 10:32:43;;;;;;;13.80;11.60;;;19.30;65.90;;;;;;5099953;28;20457;-93
2022/02/25 10:35:31;;;;;;;14.90;11.70;;;18.90;66.20;;;;;;5098701;28;20441;-96
2022/02/25 10:38:17;;;;;;;17.57;12.87;;;18.40;67.30;;;;;;5112802;28;20453;-96
2022/02/25 10:40:50;;;;;;;22.50;13.37;;;18.10;68.00;;;;;;5096739;28;20528;-90
2022/02/25 10:43:22;;;;;;;12.60;10.50;;;17.90;69.40;;;;;;5097153;28;20492;-91
2022/02/25 10:45:55;;;;;;;16.70;13.23;;;17.70;69.30;;;;;;5091454;28;20498;-90
2022/02/25 10:48:23;;;;;;;13.67;11.50;;;17.60;69.50;;;;;;5093230;28;20456;-91
2022/02/25 10:50:52;;;;;;;14.90;11.00;;;17.40;69.50;;;;;;5095044;28;20473;-90
2022/02/25 10:53:48;;;;;;;16.80;11.40;;;17.30;69.90;;;;;;5089732;28;20804;-90
2022/02/25 10:56:19;;;;;;;13.90;10.90;;;17.30;69.70;;;;;;5079436;28;20468;-90
2022/02/25 10:58:55;;;;;;;13.50;9.97;;;17.10;70.80;;;;;;5096064;28;20486;-90
2022/02/25 11:01:24;;;;;;;16.17;11.30;;;16.90;70.80;;;;;;5099159;28;20409;-96
2022/02/25 11:04:11;;;;;;;14.80;10.70;;;16.80;70.60;;;;;;5108526;28;20469;-96
2022/02/25 11:06:40;;;;;;;13.03;10.53;;;16.70;71.30;;;;;;5111390;28;20436;-96
2022/02/25 11:09:12;;;;;;;13.20;9.80;;;16.60;71.60;;;;;;5111473;28;20425;-96
2022/02/25 11:11:40;;;;;;;14.63;9.50;;;16.50;71.60;;;;;;5094784;28;20474;-88
2022/02/25 11:14:08;;;;;;;18.20;10.37;;;16.40;71.80;;;;;;5090405;28;20472;-89
2022/02/25 11:16:36;;;;;;;16.40;11.30;;;16.30;72.50;;;;;;5092377;28;20436;-89
2022/02/25 11:19:03;;;;;;;14.47;10.67;;;16.30;72.80;;;;;;5093757;28;20433;-89
2022/02/25 11:21:30;;;;;;;13.00;10.50;;;16.20;73.50;;;;;;5101289;28;20511;-96
2022/02/25 11:24:00;;;;;;;14.23;9.83;;;16.10;73.50;;;;;;5110285;28;20441;-96
2022/02/25 11:26:28;;;;;;;14.90;10.20;;;16.10;73.70;;;;;;5140176;27;20599;-95
2022/02/25 11:29:00;;;;;;;13.30;10.37;;;16.10;73.60;;;;;;5123603;28;20472;-90
2022/02/25 11:31:35;;;;;;;17.83;10.87;;;16.20;73.50;;;;;;5114570;28;20416;-95
2022/02/25 11:34:01;;;;;;;15.57;10.40;;;16.20;73.60;;;;;;5088788;28;20452;-89
2022/02/25 11:36:45;;;;;;;16.70;10.20;;;16.30;73.50;;;;;;5092038;28;20839;-89
2022/02/25 11:39:23;;;;;;;16.03;9.47;;;16.30;74.70;;;;;;5093347;28;20919;-89
2022/02/25 11:41:54;;;;;;;17.40;11.03;;;16.20;73.10;;;;;;5094168;28;20464;-89
2022/02/25 11:44:20;;;;;;;14.07;10.63;;;16.20;73.50;;;;;;5095288;28;20573;-89
2022/02/25 11:46:50;;;;;;;13.70;10.07;;;16.10;74.70;;;;;;5092519;28;20437;-96
2022/02/25 11:49:26;;;;;;;14.87;9.50;;;16.10;73.90;;;;;;5110382;28;20780;-95
2022/02/25 11:51:53;;;;;;;13.50;10.10;;;16.00;74.00;;;;;;5108171;28;20403;-96
2022/02/25 11:54:27;;;;;;;15.73;10.00;;;15.90;74.30;;;;;;5101360;28;20832;-88
2022/02/25 11:56:59;;;;;;;18.30;10.23;;;15.80;75.20;;;;;;5097991;28;20457;-96
2022/02/25 11:59:33;;;;;;;14.67;10.30;;;15.80;75.60;;;;;;5108484;28;20469;-96
2022/02/25 12:02:35;;;;;;;16.43;10.67;;;15.70;75.60;;;;;;5089640;28;20471;-89
2022/02/25 12:05:01;;;;;;;18.13;10.70;;;15.70;76.30;;;;;;5092417;28;20441;-89
2022/02/25 12:07:37;;;;;;;14.67;11.23;;;15.70;75.40;;;;;;5098495;28;20875;-88
2022/02/25 12:10:12;;;;;;;26.83;16.00;;;15.60;75.30;;;;;;5087233;28;20468;-89
2022/02/25 12:13:04;;;;;;;20.43;12.97;;;15.50;75.70;;;;;;5098386;28;20455;-96
2022/02/25 12:15:38;;;;;;;19.73;12.07;;;15.60;76.20;;;;;;5048459;28;20456;-89
2022/02/25 12:18:10;;;;;;;15.70;12.03;;;15.60;75.60;;;;;;5053070;28;20970;-89
2022/02/25 12:20:44;;;;;;;24.33;13.40;;;15.50;75.10;;;;;;5072678;28;20942;-89
2022/02/25 12:23:15;;;;;;;17.53;11.50;;;15.50;75.80;;;;;;5071378;28;20477;-96
2022/02/25 12:25:42;;;;;;;20.87;12.77;;;15.50;76.20;;;;;;5054430;28;20503;-89
2022/02/25 12:28:10;;;;;;;20.33;12.90;;;15.60;76.60;;;;;;5061544;28;20448;-89
2022/02/25 12:30:43;;;;;;;20.83;12.83;;;15.60;76.20;;;;;;5055021;28;20626;-90
2022/02/25 12:33:41;;;;;;;17.97;11.73;;;15.60;76.70;;;;;;5070867;28;20449;-90
2022/02/25 12:36:20;;;;;;;15.90;12.50;;;15.70;75.90;;;;;;5044394;28;20440;-89
2022/02/25 12:38:51;;;;;;;15.40;12.30;;;15.60;75.70;;;;;;5055588;28;20449;-90
2022/02/25 12:41:22;;;;;;;17.43;13.37;;;15.60;75.80;;;;;;5054412;28;20503;-96
2022/02/25 12:43:56;;;;;;;19.83;12.43;;;15.60;76.80;;;;;;5087419;28;20474;-96